Laurel, MT

6:36 PM MDT on May 25, 2015 (GMT -0600)
NonFedAWOS | | Change Station
CLOSE
Current Station
Personal Weather Station
Location: Laurel, MT
Elevation: 3517 ft
Nearby Weather Stations

Elev 3517 ft 45.70 °N, 108.76 °W | Updated 3 days ago

Partly Cloudy
Partly Cloudy
61 °F
Feels Like 61 °F
N
7
Wind Variable Wind from ENE
Gusts mph

Today
High -- | Low -- °F
--% Chance of Precip.
Yesterday
High -- | Low -- °F
Precip. -- in
5:34 AM 8:50 PM
First Quarter, 53% visible
Pressure 29.83 in
Visibility 10.0 miles
Clouds Scattered Clouds 5000 ft
Dew Point 45 °F
Humidity 56%
Rainfall in
Snow Depth Not available.
UV 2 out of 12
Pollen 4.00 out of 12
Air Quality Not available.
Flu Activity Sporadic
METAR KBIL 252353Z 11008KT 10SM SCT050 20/07 A2987 RMK AO2 SLP099 OCNL LTG DSNT NE CB DSNT N-NE T02000072 10211 20150 56009

More Conditions Fewer Conditions

Pressure 29.83 in
Visibility 10.0 miles
Clouds Scattered Clouds 5000 ft
Dew Point 45 °F
Humidity 56%
Rainfall in
Snow Depth Not available.
UV 2 out of 12
Pollen 4.00 out of 12
Air Quality Not available.
Flu Activity Sporadic
METAR KBIL 252353Z 11008KT 10SM SCT050 20/07 A2987 RMK AO2 SLP099 OCNL LTG DSNT NE CB DSNT N-NE T02000072 10211 20150 56009

More Conditions Fewer Conditions

10-Day Weather Forecast

Almanac

Astronomy

May. 25, 2015 Rise Set
Actual Time
Civil Twilight
Nautical Twilight
Astronomical Twilight
Moon
Length of Visible Light
Length of Day
Tomorrow will be .
, % of the Moon is Illuminated

Today's Extremes

State Highs State Lows

Community

WunderPhotos

Upload Photos

1,824,187 photos uploaded!

WunderBlogs® & News

Nearby

Air Quality

  Air Quality AQ Index Pollutant
Not available.

Snow Depth

Station Depth Elevation

Earthquake Activity

City Distance Mag. Time & Date
Minimum magnitude displayed is 2.5.

Coastal Water Temperatures

Place Temperature

Stations

Nearby Weather Stations

Station Location Temp. Windchill Dew Point Humidity Wind Precip. Elev Updated Type